createdAt,value
2022-12-04T00:00:05.853Z,0.53
2022-12-04T00:01:05.860Z,0.58
2022-12-04T00:02:05.779Z,0.57
2022-12-04T00:03:06.312Z,0.57
2022-12-04T00:04:05.772Z,0.57
2022-12-04T00:05:07.746Z,0.57
2022-12-04T00:06:05.738Z,0.53
2022-12-04T00:07:05.786Z,0.52
2022-12-04T00:08:05.824Z,0.51
2022-12-04T00:09:05.952Z,0.52
2022-12-04T00:10:06.138Z,0.51
2022-12-04T00:11:05.758Z,0.52
2022-12-04T00:12:05.779Z,0.51
2022-12-04T00:13:05.666Z,0.51
2022-12-04T00:14:07.461Z,0.52
2022-12-04T00:16:05.749Z,0.49
2022-12-04T00:17:06.024Z,0.49
2022-12-04T00:18:05.608Z,0.51
2022-12-04T00:19:05.618Z,0.51
2022-12-04T00:20:05.645Z,0.52
2022-12-04T00:21:06.528Z,0.48
2022-12-04T00:22:05.606Z,0.49
2022-12-04T00:23:05.717Z,0.48
2022-12-04T00:24:05.831Z,0.51
2022-12-04T00:25:06.157Z,0.49
2022-12-04T00:26:05.544Z,0.51
2022-12-04T00:27:05.532Z,0.52
2022-12-04T00:28:05.551Z,0.53
2022-12-04T00:29:05.586Z,0.52
2022-12-04T00:30:05.522Z,0.57
2022-12-04T00:31:06.115Z,0.51
2022-12-04T00:32:05.760Z,0.52
2022-12-04T00:33:05.511Z,0.52
2022-12-04T00:34:08.045Z,0.52
2022-12-04T00:35:05.634Z,0.53
2022-12-04T00:36:05.436Z,0.53
2022-12-04T00:37:05.499Z,0.57
2022-12-04T00:38:05.783Z,0.53
2022-12-04T00:39:05.469Z,0.53
2022-12-04T00:40:05.451Z,0.57
2022-12-04T00:41:05.599Z,0.57
2022-12-04T00:42:05.392Z,0.58
2022-12-04T00:43:05.389Z,0.57
2022-12-04T00:44:06.091Z,0.57
2022-12-04T00:45:05.629Z,0.58
2022-12-04T00:46:05.388Z,0.57
2022-12-04T00:47:05.419Z,0.53
2022-12-04T00:48:05.345Z,0.53
2022-12-04T00:49:05.358Z,0.58
2022-12-04T00:50:05.382Z,0.53
2022-12-04T00:51:05.397Z,0.52
2022-12-04T00:52:05.637Z,0.57
2022-12-04T00:53:05.353Z,0.53
2022-12-04T00:54:05.318Z,0.53
2022-12-04T00:55:05.320Z,0.52
2022-12-04T00:56:05.232Z,0.53
2022-12-04T00:57:05.255Z,0.53
2022-12-04T00:58:05.255Z,0.53
2022-12-04T00:59:05.727Z,0.53
2022-12-04T01:00:05.249Z,0.52
2022-12-04T01:01:05.267Z,0.57
2022-12-04T01:02:05.175Z,0.52
2022-12-04T01:03:05.269Z,0.53
2022-12-04T01:04:05.147Z,0.53
2022-12-04T01:05:05.199Z,0.52
2022-12-04T01:06:05.408Z,0.53
2022-12-04T01:07:05.512Z,0.52
2022-12-04T01:08:05.220Z,0.53
2022-12-04T01:09:05.105Z,0.57
2022-12-04T01:10:05.182Z,0.58
2022-12-04T01:11:05.161Z,0.57
2022-12-04T01:12:05.072Z,0.58
2022-12-04T01:13:05.346Z,0.53
2022-12-04T01:14:06.525Z,0.57
2022-12-04T01:15:05.098Z,0.53
2022-12-04T01:16:05.092Z,0.58
2022-12-04T01:17:05.071Z,0.57
2022-12-04T01:18:05.010Z,0.58
2022-12-04T01:19:04.992Z,0.57
2022-12-04T01:20:05.283Z,0.58
2022-12-04T01:21:04.986Z,0.58
2022-12-04T01:22:04.954Z,0.57
2022-12-04T01:23:04.981Z,0.60
2022-12-04T01:24:04.956Z,0.58
2022-12-04T01:25:04.974Z,0.57
2022-12-04T01:26:04.933Z,0.53
2022-12-04T01:27:05.222Z,0.58
2022-12-04T01:28:04.902Z,0.58
2022-12-04T01:29:04.913Z,0.58
2022-12-04T01:30:04.925Z,0.58
2022-12-04T01:31:04.866Z,0.57
2022-12-04T01:32:04.926Z,0.60
2022-12-04T01:33:04.845Z,0.58
2022-12-04T01:34:05.165Z,0.61
2022-12-04T01:35:04.881Z,0.61
2022-12-04T01:36:04.841Z,0.60
2022-12-04T01:37:04.837Z,0.58
2022-12-04T01:38:04.790Z,0.60
2022-12-04T01:39:04.798Z,0.60
2022-12-04T01:40:04.878Z,0.60
2022-12-04T01:41:05.111Z,0.61
2022-12-04T01:42:04.764Z,0.62
2022-12-04T01:43:04.773Z,0.62
2022-12-04T01:44:04.732Z,0.60
2022-12-04T01:45:04.729Z,0.58
2022-12-04T01:46:04.851Z,0.61
2022-12-04T01:47:04.771Z,0.61
2022-12-04T01:48:04.974Z,0.62
2022-12-04T01:49:04.698Z,0.64
2022-12-04T01:50:04.694Z,0.64
2022-12-04T01:51:04.669Z,0.65
2022-12-04T01:52:04.648Z,0.65
2022-12-04T01:53:04.687Z,0.65
2022-12-04T01:54:04.633Z,0.65
2022-12-04T01:55:04.912Z,0.65
2022-12-04T01:56:04.613Z,0.67
2022-12-04T01:57:04.639Z,0.68
2022-12-04T01:58:04.630Z,0.67
2022-12-04T01:59:04.635Z,0.67
2022-12-04T02:00:04.578Z,0.68
2022-12-04T02:01:08.401Z,0.67
2022-12-04T02:02:04.964Z,0.67
2022-12-04T02:03:04.676Z,0.67
2022-12-04T02:04:04.600Z,0.67
2022-12-04T02:05:04.605Z,0.68
2022-12-04T02:06:04.615Z,0.68
2022-12-04T02:07:04.525Z,0.68
2022-12-04T02:08:04.543Z,0.68
2022-12-04T02:09:04.788Z,0.70
2022-12-04T02:10:04.480Z,0.68
2022-12-04T02:11:04.511Z,0.68
2022-12-04T02:12:04.454Z,0.67
2022-12-04T02:13:04.464Z,0.68
2022-12-04T02:14:04.475Z,0.65
2022-12-04T02:15:04.469Z,0.68
2022-12-04T02:16:04.800Z,0.67
2022-12-04T02:17:04.484Z,0.65
2022-12-04T02:18:04.385Z,0.65
2022-12-04T02:19:04.393Z,0.68
2022-12-04T02:20:04.473Z,0.67
2022-12-04T02:21:04.370Z,0.68
2022-12-04T02:22:04.403Z,0.67
2022-12-04T02:23:04.375Z,0.67
2022-12-04T02:24:04.328Z,0.65
2022-12-04T02:25:04.317Z,0.67
2022-12-04T02:26:04.307Z,0.68
2022-12-04T02:27:04.310Z,0.67
2022-12-04T02:28:04.587Z,0.70
2022-12-04T02:29:04.331Z,0.68
2022-12-04T02:30:04.283Z,0.70
2022-12-04T02:31:04.372Z,0.68
2022-12-04T02:32:04.248Z,0.70
2022-12-04T02:33:04.254Z,0.71
2022-12-04T02:34:04.235Z,0.75
2022-12-04T02:35:04.265Z,0.75
2022-12-04T02:36:04.230Z,0.75
2022-12-04T02:37:04.209Z,0.78
2022-12-04T02:38:04.194Z,0.76
2022-12-04T02:39:04.188Z,0.75
2022-12-04T02:40:04.490Z,0.78
2022-12-04T02:41:04.194Z,0.79
2022-12-04T02:42:04.143Z,0.79
2022-12-04T02:43:04.150Z,0.79
2022-12-04T02:44:04.123Z,0.79
2022-12-04T02:45:04.120Z,0.80
2022-12-04T02:46:04.175Z,0.82
2022-12-04T02:47:04.440Z,0.80
2022-12-04T02:48:04.073Z,0.82
2022-12-04T02:49:04.117Z,0.82
2022-12-04T02:50:04.071Z,0.85
2022-12-04T02:51:04.057Z,0.83
2022-12-04T02:52:04.040Z,0.85
2022-12-04T02:53:04.079Z,0.85
2022-12-04T02:54:04.321Z,0.86
2022-12-04T02:55:08.163Z,0.86
2022-12-04T02:56:04.007Z,0.86
2022-12-04T02:57:04.003Z,0.83
2022-12-04T02:58:03.982Z,0.83
2022-12-04T02:59:04.026Z,0.83
2022-12-04T03:00:03.987Z,0.83
2022-12-04T03:01:04.273Z,0.83
2022-12-04T03:02:04.045Z,0.80
2022-12-04T03:03:03.966Z,0.82
2022-12-04T03:04:03.962Z,0.82
2022-12-04T03:05:03.950Z,0.82
2022-12-04T03:06:03.896Z,0.82
2022-12-04T03:07:03.895Z,0.82
2022-12-04T03:08:04.239Z,0.82
2022-12-04T03:09:03.873Z,0.80
2022-12-04T03:10:03.856Z,0.80
2022-12-04T03:11:03.885Z,0.80
2022-12-04T03:12:03.838Z,0.79
2022-12-04T03:13:03.843Z,0.80
2022-12-04T03:14:03.854Z,0.79
2022-12-04T03:15:04.132Z,0.79
2022-12-04T03:16:03.814Z,0.80
2022-12-04T03:17:03.913Z,0.80
2022-12-04T03:18:03.784Z,0.79
2022-12-04T03:19:03.790Z,0.79
2022-12-04T03:20:03.782Z,0.79
2022-12-04T03:21:03.749Z,0.78
2022-12-04T03:22:04.010Z,0.79
2022-12-04T03:23:03.847Z,0.79
2022-12-04T03:24:03.813Z,0.78
2022-12-04T03:25:03.727Z,0.78
2022-12-04T03:26:03.703Z,0.78
2022-12-04T03:27:03.677Z,0.79
2022-12-04T03:28:03.682Z,0.78
2022-12-04T03:29:04.080Z,0.76
2022-12-04T03:30:03.690Z,0.78
2022-12-04T03:31:03.802Z,0.78
2022-12-04T03:32:03.641Z,0.78
2022-12-04T03:33:03.624Z,0.78
2022-12-04T03:34:03.627Z,0.78
2022-12-04T03:35:03.667Z,0.79
2022-12-04T03:36:03.920Z,0.76
2022-12-04T03:37:03.584Z,0.75
2022-12-04T03:38:03.595Z,0.76
2022-12-04T03:39:03.563Z,0.75
2022-12-04T03:40:03.566Z,0.76
2022-12-04T03:41:03.579Z,0.75
2022-12-04T03:42:03.537Z,0.75
2022-12-04T03:43:03.829Z,0.75
2022-12-04T03:44:03.515Z,0.71
2022-12-04T03:45:03.510Z,0.71
2022-12-04T03:46:03.601Z,0.71
2022-12-04T03:47:03.512Z,0.71
2022-12-04T03:48:03.495Z,0.70
2022-12-04T03:49:03.469Z,0.71
2022-12-04T03:50:03.768Z,0.72
2022-12-04T03:51:03.439Z,0.71
2022-12-04T03:52:03.428Z,0.71
2022-12-04T03:53:04.636Z,0.71
2022-12-04T03:54:03.417Z,0.70
2022-12-04T03:55:03.402Z,0.70
2022-12-04T03:56:03.401Z,0.70
2022-12-04T03:57:03.686Z,0.70
2022-12-04T03:58:03.386Z,0.68
2022-12-04T03:59:03.452Z,0.70
2022-12-04T04:00:03.836Z,0.67
2022-12-04T04:01:03.478Z,0.68
2022-12-04T04:02:03.390Z,0.65
2022-12-04T04:03:03.432Z,0.67
2022-12-04T04:04:03.602Z,0.67
2022-12-04T04:05:03.337Z,0.64
2022-12-04T04:06:03.354Z,0.65
2022-12-04T04:07:03.321Z,0.67
2022-12-04T04:08:03.332Z,0.67
2022-12-04T04:09:03.255Z,0.67
2022-12-04T04:10:03.263Z,0.65
2022-12-04T04:11:03.558Z,0.67
2022-12-04T04:12:03.260Z,0.67
2022-12-04T04:13:03.226Z,0.68
2022-12-04T04:14:03.214Z,0.67
2022-12-04T04:15:03.203Z,0.65
2022-12-04T04:16:03.269Z,0.67
2022-12-04T04:17:03.224Z,0.67
2022-12-04T04:18:03.477Z,0.68
2022-12-04T04:19:03.157Z,0.67
2022-12-04T04:20:03.151Z,0.68
2022-12-04T04:21:03.149Z,0.71
2022-12-04T04:22:03.133Z,0.68
2022-12-04T04:23:03.159Z,0.67
2022-12-04T04:24:03.134Z,0.70
2022-12-04T04:25:03.397Z,0.68
2022-12-04T04:26:03.093Z,0.71
2022-12-04T04:27:03.159Z,0.70
2022-12-04T04:28:03.077Z,0.71
2022-12-04T04:29:03.089Z,0.72
2022-12-04T04:30:03.075Z,0.72
2022-12-04T04:31:03.089Z,0.72
2022-12-04T04:32:04.337Z,0.71
2022-12-04T04:33:03.023Z,0.72
2022-12-04T04:34:03.022Z,0.75
2022-12-04T04:35:03.051Z,0.76
2022-12-04T04:36:03.007Z,0.75
2022-12-04T04:37:02.983Z,0.75
2022-12-04T04:38:02.967Z,0.75
2022-12-04T04:39:03.284Z,0.72
2022-12-04T04:40:02.963Z,0.72
2022-12-04T04:41:02.989Z,0.72
2022-12-04T04:42:02.928Z,0.70
2022-12-04T04:43:02.925Z,0.71
2022-12-04T04:44:02.909Z,0.72
2022-12-04T04:45:02.900Z,0.72
2022-12-04T04:46:03.255Z,0.72
2022-12-04T04:47:02.913Z,0.70
2022-12-04T04:48:02.893Z,0.72
2022-12-04T04:49:02.874Z,0.71
2022-12-04T04:50:02.860Z,0.71
2022-12-04T04:51:02.858Z,0.72
2022-12-04T04:52:02.836Z,0.70
2022-12-04T04:53:03.133Z,0.75
2022-12-04T04:54:02.836Z,0.72
2022-12-04T04:55:02.825Z,0.71
2022-12-04T04:56:02.797Z,0.71
2022-12-04T04:57:02.795Z,0.70
2022-12-04T04:58:02.782Z,0.70
2022-12-04T04:59:03.324Z,0.67
2022-12-04T05:00:03.048Z,0.68
2022-12-04T05:01:02.750Z,0.67
2022-12-04T05:02:02.863Z,0.65
2022-12-04T05:03:02.900Z,0.68
2022-12-04T05:04:02.727Z,0.68
2022-12-04T05:05:02.771Z,0.71
2022-12-04T05:06:03.437Z,0.70
2022-12-04T05:07:02.976Z,0.70
2022-12-04T05:08:02.753Z,0.71
2022-12-04T05:09:02.664Z,0.70
2022-12-04T05:10:02.675Z,0.70
2022-12-04T05:11:02.674Z,0.67
2022-12-04T05:12:02.622Z,0.65
2022-12-04T05:13:02.608Z,0.64
2022-12-04T05:14:02.901Z,0.64
2022-12-04T05:15:02.660Z,0.62
2022-12-04T05:16:02.675Z,0.62
2022-12-04T05:17:05.501Z,0.64
2022-12-04T05:18:02.578Z,0.65
2022-12-04T05:19:02.555Z,0.65
2022-12-04T05:20:02.554Z,0.64
2022-12-04T05:21:02.829Z,0.62
2022-12-04T05:22:02.546Z,0.65
2022-12-04T05:23:02.550Z,0.65
2022-12-04T05:24:02.512Z,0.68
2022-12-04T05:25:02.491Z,0.68
2022-12-04T05:26:02.485Z,0.68
2022-12-04T05:27:02.481Z,0.70
2022-12-04T05:28:02.776Z,0.68
2022-12-04T05:29:02.482Z,0.68
2022-12-04T05:30:02.485Z,0.68
2022-12-04T05:31:02.467Z,0.68
2022-12-04T05:32:02.429Z,0.68
2022-12-04T05:33:02.423Z,0.67
2022-12-04T05:34:02.410Z,0.70
2022-12-04T05:35:06.446Z,0.71
2022-12-04T05:36:02.406Z,0.70
2022-12-04T05:37:02.395Z,0.71
2022-12-04T05:38:02.375Z,0.70
2022-12-04T05:39:02.351Z,0.68
2022-12-04T05:40:02.374Z,0.68
2022-12-04T05:41:02.366Z,0.68
2022-12-04T05:42:02.607Z,0.68
2022-12-04T05:43:02.335Z,0.68
2022-12-04T05:44:02.302Z,0.67
2022-12-04T05:45:02.308Z,0.67
2022-12-04T05:46:02.284Z,0.67
2022-12-04T05:47:02.355Z,0.68
2022-12-04T05:48:03.063Z,0.68
2022-12-04T05:49:02.531Z,0.70
2022-12-04T05:50:02.254Z,0.70
2022-12-04T05:51:02.234Z,0.71
2022-12-04T05:52:02.226Z,0.68
2022-12-04T05:53:02.247Z,0.70
2022-12-04T05:54:02.205Z,0.70
2022-12-04T05:55:02.198Z,0.70
2022-12-04T05:56:02.469Z,0.70
2022-12-04T05:57:02.180Z,0.72
2022-12-04T05:58:02.163Z,0.72
2022-12-04T05:59:02.196Z,0.72
2022-12-04T06:00:02.156Z,0.70
2022-12-04T06:01:02.151Z,0.71
2022-12-04T06:02:02.191Z,0.70
2022-12-04T06:03:02.442Z,0.68
2022-12-04T06:04:02.098Z,0.70
2022-12-04T06:05:02.402Z,0.71
2022-12-04T06:06:02.093Z,0.71
2022-12-04T06:07:02.071Z,0.72
2022-12-04T06:08:02.148Z,0.71
2022-12-04T06:09:02.055Z,0.71
2022-12-04T06:10:02.348Z,0.75
2022-12-04T06:11:02.057Z,0.72
2022-12-04T06:12:02.018Z,0.72
2022-12-04T06:13:02.009Z,0.72
2022-12-04T06:14:01.997Z,0.71
2022-12-04T06:15:01.989Z,0.71
2022-12-04T06:16:02.069Z,0.72
2022-12-04T06:17:02.272Z,0.75
2022-12-04T06:18:01.954Z,0.72
2022-12-04T06:19:01.954Z,0.75
2022-12-04T06:20:04.297Z,0.72
2022-12-04T06:21:02.088Z,0.72
2022-12-04T06:22:01.921Z,0.75
2022-12-04T06:23:01.930Z,0.76
2022-12-04T06:24:02.197Z,0.75
2022-12-04T06:25:01.893Z,0.75
2022-12-04T06:26:06.790Z,0.76
2022-12-04T06:27:26.922Z,0.71
2022-12-04T06:28:01.860Z,0.75
2022-12-04T06:29:01.896Z,0.72
2022-12-04T06:30:01.839Z,0.75
2022-12-04T06:31:02.104Z,0.75
2022-12-04T06:32:01.921Z,0.75
2022-12-04T06:33:01.808Z,0.75
2022-12-04T06:34:01.805Z,0.75
2022-12-04T06:35:01.816Z,0.76
2022-12-04T06:36:01.836Z,0.76
2022-12-04T06:37:01.779Z,0.76
2022-12-04T06:38:03.110Z,0.78
2022-12-04T06:39:01.745Z,0.78
2022-12-04T06:40:01.755Z,0.76
2022-12-04T06:41:01.751Z,0.78
2022-12-04T06:42:01.738Z,0.79
2022-12-04T06:43:01.721Z,0.80
2022-12-04T06:44:01.730Z,0.79
2022-12-04T06:45:01.960Z,0.78
2022-12-04T06:46:01.770Z,0.82
2022-12-04T06:47:01.703Z,0.80
2022-12-04T06:48:01.674Z,0.80
2022-12-04T06:49:01.663Z,0.80
2022-12-04T06:50:01.675Z,0.82
2022-12-04T06:51:01.661Z,0.80
2022-12-04T06:52:02.008Z,0.80
2022-12-04T06:53:07.953Z,0.82
2022-12-04T06:54:01.612Z,0.82
2022-12-04T06:55:01.612Z,0.83
2022-12-04T06:56:01.599Z,0.83
2022-12-04T06:57:01.583Z,0.83
2022-12-04T06:58:01.562Z,0.85
2022-12-04T06:59:01.859Z,0.83
2022-12-04T07:00:01.540Z,0.85
2022-12-04T07:01:01.547Z,0.86
2022-12-04T07:02:01.585Z,0.83
2022-12-04T07:03:01.507Z,0.83
2022-12-04T07:04:01.506Z,0.83
2022-12-04T07:05:01.513Z,0.83
2022-12-04T07:06:01.754Z,0.83
2022-12-04T07:07:01.470Z,0.85
2022-12-04T07:08:01.517Z,0.86
2022-12-04T07:09:01.446Z,0.86
2022-12-04T07:10:01.428Z,0.85
2022-12-04T07:11:01.795Z,0.85
2022-12-04T07:12:01.419Z,0.88
2022-12-04T07:13:01.703Z,0.86
2022-12-04T07:14:01.401Z,0.88
2022-12-04T07:15:01.380Z,0.86
2022-12-04T07:16:01.438Z,0.88
2022-12-04T07:17:01.487Z,0.88
2022-12-04T07:18:01.354Z,0.90
2022-12-04T07:19:01.344Z,0.88
2022-12-04T07:20:01.609Z,0.88
2022-12-04T07:21:01.317Z,0.90
2022-12-04T07:22:01.324Z,0.92
2022-12-04T07:23:06.880Z,0.90
2022-12-04T07:24:01.305Z,0.90
2022-12-04T07:25:01.307Z,0.89
2022-12-04T07:26:01.275Z,0.92
2022-12-04T07:27:01.577Z,0.92
2022-12-04T07:28:01.258Z,0.94
2022-12-04T07:29:01.280Z,0.92
2022-12-04T07:30:01.262Z,0.94
2022-12-04T07:31:01.217Z,0.96
2022-12-04T07:32:01.299Z,0.94
2022-12-04T07:33:01.197Z,0.94
2022-12-04T07:34:01.480Z,0.92
2022-12-04T07:35:01.200Z,0.94
2022-12-04T07:36:01.174Z,0.94
2022-12-04T07:37:01.178Z,0.96
2022-12-04T07:38:01.163Z,0.97
2022-12-04T07:39:01.172Z,0.98
2022-12-04T07:40:01.169Z,0.98
2022-12-04T07:41:01.446Z,0.97
2022-12-04T07:42:01.165Z,0.98
2022-12-04T07:43:01.103Z,0.98
2022-12-04T07:44:01.093Z,0.97
2022-12-04T07:45:01.122Z,0.98
2022-12-04T07:46:01.135Z,0.98
2022-12-04T07:47:01.092Z,1.04
2022-12-04T07:48:01.043Z,1.16
2022-12-04T07:49:01.072Z,1.19
2022-12-04T07:50:01.056Z,1.21
2022-12-04T07:51:01.016Z,1.24
2022-12-04T07:52:01.006Z,1.22
2022-12-04T07:53:01.304Z,1.18
2022-12-04T07:54:04.128Z,1.15
2022-12-04T07:55:00.987Z,1.12
2022-12-04T07:56:00.972Z,1.12
2022-12-04T07:57:00.965Z,1.10
2022-12-04T07:58:00.951Z,1.10
2022-12-04T07:59:00.980Z,1.07
2022-12-04T08:00:00.937Z,1.07
2022-12-04T08:01:00.982Z,1.10
2022-12-04T08:02:01.056Z,1.12
2022-12-04T08:03:00.907Z,1.12
2022-12-04T08:04:01.060Z,1.12
2022-12-04T08:05:01.303Z,1.14
2022-12-04T08:06:00.876Z,1.10
2022-12-04T08:07:00.876Z,1.14
2022-12-04T08:08:00.890Z,1.12
2022-12-04T08:09:06.193Z,1.15
2022-12-04T08:10:00.883Z,1.18
2022-12-04T08:11:00.853Z,1.19
2022-12-04T08:12:01.091Z,1.21
2022-12-04T08:13:00.885Z,1.21
2022-12-04T08:14:00.813Z,1.21
2022-12-04T08:15:00.787Z,1.25
2022-12-04T08:16:00.781Z,1.26
2022-12-04T08:17:00.898Z,1.29
2022-12-04T08:18:00.750Z,1.32
2022-12-04T08:19:01.038Z,1.34
2022-12-04T08:20:00.732Z,1.36
2022-12-04T08:21:00.728Z,1.34
2022-12-04T08:22:00.715Z,1.36
2022-12-04T08:23:00.741Z,1.36
2022-12-04T08:24:00.872Z,1.36
2022-12-04T08:25:00.744Z,1.37
2022-12-04T08:26:01.042Z,1.36
2022-12-04T08:27:00.845Z,1.39
2022-12-04T08:28:00.912Z,1.42
2022-12-04T08:29:00.906Z,1.37
2022-12-04T08:30:00.890Z,1.39
2022-12-04T08:31:00.760Z,1.37
2022-12-04T08:32:00.735Z,1.34
2022-12-04T08:33:00.909Z,1.36
2022-12-04T08:34:00.783Z,1.37
2022-12-04T08:35:00.743Z,1.34
2022-12-04T08:36:00.588Z,1.36
2022-12-04T08:37:00.681Z,1.33
2022-12-04T08:38:00.599Z,1.33
2022-12-04T08:39:00.675Z,1.33
2022-12-04T08:40:00.816Z,1.32
2022-12-04T08:41:00.563Z,1.29
2022-12-04T08:42:00.557Z,1.32
2022-12-04T08:43:00.572Z,1.32
2022-12-04T08:44:00.521Z,1.33
2022-12-04T08:45:00.834Z,1.34
2022-12-04T08:46:00.969Z,1.36
2022-12-04T08:47:00.854Z,1.34
2022-12-04T08:48:00.545Z,1.37
2022-12-04T08:49:00.502Z,1.39
2022-12-04T08:50:00.638Z,1.39
2022-12-04T08:51:00.427Z,1.39
2022-12-04T08:52:00.414Z,1.39
2022-12-04T08:53:00.440Z,1.39
2022-12-04T08:54:00.843Z,1.37
2022-12-04T08:55:00.393Z,1.36
2022-12-04T08:56:00.401Z,1.36
2022-12-04T08:57:00.383Z,1.34
2022-12-04T08:58:00.362Z,1.34
2022-12-04T08:59:00.377Z,1.36
2022-12-04T09:00:00.332Z,1.34
2022-12-04T09:01:00.689Z,1.36
2022-12-04T09:02:00.371Z,1.37
2022-12-04T09:03:00.327Z,1.37
2022-12-04T09:04:00.419Z,1.37
2022-12-04T09:05:00.322Z,1.37
2022-12-04T09:06:00.266Z,1.39
2022-12-04T09:07:00.269Z,1.40
2022-12-04T09:08:00.613Z,1.40
2022-12-04T09:09:00.267Z,1.40
2022-12-04T09:10:00.568Z,1.40
2022-12-04T09:11:00.257Z,1.40
2022-12-04T09:12:00.219Z,1.42
2022-12-04T09:13:00.205Z,1.42
2022-12-04T09:14:00.238Z,1.43
2022-12-04T09:15:00.470Z,1.43
2022-12-04T09:16:00.227Z,1.43
2022-12-04T09:17:00.220Z,1.43
2022-12-04T09:18:00.160Z,1.47
2022-12-04T09:19:00.172Z,1.46
2022-12-04T09:20:01.354Z,1.44
2022-12-04T09:21:00.203Z,1.47
2022-12-04T09:22:00.408Z,1.50
2022-12-04T09:23:04.640Z,1.51
2022-12-04T09:24:00.100Z,1.47
2022-12-04T09:25:00.094Z,1.50
2022-12-04T09:26:00.099Z,1.51
2022-12-04T09:27:00.057Z,1.47
2022-12-04T09:28:00.044Z,1.50
2022-12-04T09:29:00.095Z,1.51
2022-12-04T09:30:00.107Z,1.52
2022-12-04T09:31:00.060Z,1.52
2022-12-04T09:32:00.005Z,1.51
2022-12-04T09:33:00.009Z,1.52
2022-12-04T09:34:00.299Z,1.52
2022-12-04T09:35:00.076Z,1.55
2022-12-04T09:35:59.963Z,1.55
2022-12-04T09:36:59.971Z,1.57
2022-12-04T09:37:59.961Z,1.58
2022-12-04T09:38:59.967Z,1.58
2022-12-04T09:39:59.939Z,1.60
2022-12-04T09:41:00.271Z,1.57
2022-12-04T09:41:59.912Z,1.58
2022-12-04T09:42:59.963Z,1.57
2022-12-04T09:43:59.944Z,1.61
2022-12-04T09:44:59.892Z,1.60
2022-12-04T09:45:59.933Z,1.60
2022-12-04T09:47:00.027Z,1.61
2022-12-04T09:48:00.134Z,1.64
2022-12-04T09:48:59.847Z,1.65
2022-12-04T09:49:59.829Z,1.69
2022-12-04T09:50:59.834Z,1.71
2022-12-04T09:51:59.835Z,1.71
2022-12-04T09:52:59.828Z,1.72
2022-12-04T09:53:59.806Z,1.73
2022-12-04T09:54:59.780Z,1.76
2022-12-04T09:55:59.805Z,1.72
2022-12-04T09:56:59.775Z,1.73
2022-12-04T09:58:01.991Z,1.72
2022-12-04T09:58:59.852Z,1.75
2022-12-04T10:00:00.020Z,1.75
2022-12-04T10:00:59.786Z,1.76
2022-12-04T10:01:59.723Z,1.78
2022-12-04T10:02:59.907Z,1.78
2022-12-04T10:04:05.673Z,1.79
2022-12-04T10:04:59.740Z,1.79
2022-12-04T10:05:59.669Z,1.76
2022-12-04T10:06:59.696Z,1.79
2022-12-04T10:07:59.735Z,1.80
2022-12-04T10:08:59.678Z,1.79
2022-12-04T10:09:59.693Z,1.80
2022-12-04T10:10:59.715Z,1.85
2022-12-04T10:11:59.967Z,1.87
2022-12-04T10:12:59.647Z,1.89
2022-12-04T10:13:59.640Z,1.90
2022-12-04T10:14:59.571Z,1.90
2022-12-04T10:15:59.635Z,1.90
2022-12-04T10:16:59.673Z,1.89
2022-12-04T10:17:59.561Z,1.83
2022-12-04T10:18:59.875Z,1.85
2022-12-04T10:19:59.549Z,1.89
2022-12-04T10:20:59.572Z,1.89
2022-12-04T10:21:59.532Z,1.89
2022-12-04T10:22:59.546Z,1.91
2022-12-04T10:23:59.535Z,1.94
2022-12-04T10:24:59.486Z,1.94
2022-12-04T10:25:59.785Z,1.97
2022-12-04T10:26:59.543Z,1.99
2022-12-04T10:27:59.450Z,1.98
2022-12-04T10:28:59.522Z,1.97
2022-12-04T10:29:59.616Z,1.99
2022-12-04T10:30:59.468Z,1.98
2022-12-04T10:31:59.484Z,1.98
2022-12-04T10:32:59.763Z,1.98
2022-12-04T10:33:59.422Z,1.99
2022-12-04T10:34:59.450Z,1.97
2022-12-04T10:35:59.412Z,1.98
2022-12-04T10:36:59.437Z,1.99
2022-12-04T10:37:59.384Z,2.02
2022-12-04T10:38:59.348Z,2.04
2022-12-04T10:39:59.617Z,2.02
2022-12-04T10:40:59.403Z,2.04
2022-12-04T10:41:59.965Z,2.06
2022-12-04T10:42:59.321Z,2.06
2022-12-04T10:43:59.408Z,2.01
2022-12-04T10:44:59.299Z,2.02
2022-12-04T10:45:59.250Z,2.02
2022-12-04T10:46:59.756Z,2.04
2022-12-04T10:47:59.329Z,2.04
2022-12-04T10:48:59.350Z,2.04
2022-12-04T10:49:59.294Z,2.04
2022-12-04T10:50:59.236Z,2.09
2022-12-04T10:51:59.298Z,2.06
2022-12-04T10:52:59.250Z,2.04
2022-12-04T10:53:59.487Z,2.02
2022-12-04T10:54:59.221Z,2.04
2022-12-04T10:55:59.174Z,2.01
2022-12-04T10:56:59.308Z,2.04
2022-12-04T10:57:59.200Z,2.06
2022-12-04T10:58:59.367Z,2.08
2022-12-04T10:59:59.592Z,2.08
2022-12-04T11:00:59.494Z,2.09
2022-12-04T11:02:04.654Z,2.09
2022-12-04T11:02:59.267Z,2.09
2022-12-04T11:03:59.104Z,2.13
2022-12-04T11:04:59.281Z,2.10
2022-12-04T11:05:59.442Z,2.12
2022-12-04T11:06:59.088Z,2.09
2022-12-04T11:07:59.784Z,2.09
2022-12-04T11:08:59.078Z,2.09
2022-12-04T11:09:59.256Z,2.10
2022-12-04T11:10:59.086Z,2.09
2022-12-04T11:11:59.124Z,2.12
2022-12-04T11:12:59.024Z,2.12
2022-12-04T11:13:58.978Z,2.10
2022-12-04T11:14:59.238Z,2.12
2022-12-04T11:15:59.076Z,2.09
2022-12-04T11:16:59.010Z,2.12
2022-12-04T11:17:59.007Z,2.15
2022-12-04T11:18:58.972Z,2.19
2022-12-04T11:19:58.961Z,2.20
2022-12-04T11:20:58.925Z,2.22
2022-12-04T11:21:59.191Z,2.22
2022-12-04T11:22:58.971Z,2.22
2022-12-04T11:23:58.922Z,2.23
2022-12-04T11:24:59.022Z,2.26
2022-12-04T11:26:05.238Z,2.23
2022-12-04T11:26:58.851Z,2.27
2022-12-04T11:27:58.863Z,2.27
2022-12-04T11:28:59.289Z,2.27
2022-12-04T11:29:59.092Z,2.23
2022-12-04T11:30:58.860Z,2.28
2022-12-04T11:32:05.602Z,2.28
2022-12-04T11:32:58.808Z,2.27
2022-12-04T11:33:58.847Z,2.26
2022-12-04T11:34:58.823Z,2.28
2022-12-04T11:35:59.020Z,2.28
2022-12-04T11:36:58.795Z,2.31
2022-12-04T11:37:58.719Z,2.31
2022-12-04T11:38:58.757Z,2.28
2022-12-04T11:39:59.048Z,2.27
2022-12-04T11:40:58.785Z,2.27
2022-12-04T11:41:58.701Z,2.28
2022-12-04T11:42:58.959Z,2.28
2022-12-04T11:44:00.459Z,2.28
2022-12-04T11:44:58.650Z,2.30
2022-12-04T11:45:58.648Z,2.30
2022-12-04T11:46:58.834Z,2.30
2022-12-04T11:47:58.630Z,2.28
2022-12-04T11:48:58.620Z,2.30
2022-12-04T11:49:59.158Z,2.27
2022-12-04T11:50:58.599Z,2.28
2022-12-04T11:51:58.602Z,2.31
2022-12-04T11:52:58.674Z,2.31
2022-12-04T11:53:58.577Z,2.33
2022-12-04T11:54:58.574Z,2.33
2022-12-04T11:55:58.577Z,2.33
2022-12-04T11:56:58.850Z,2.33
2022-12-04T11:57:58.551Z,2.31
2022-12-04T11:58:58.566Z,2.31
2022-12-04T11:59:58.900Z,2.33
2022-12-04T12:00:58.540Z,2.34
2022-12-04T12:01:58.979Z,2.37
2022-12-04T12:02:58.653Z,2.37
2022-12-04T12:03:58.774Z,2.37
2022-12-04T12:04:58.521Z,2.37
2022-12-04T12:05:58.519Z,2.34
2022-12-04T12:06:58.450Z,2.33
2022-12-04T12:08:02.490Z,2.30
2022-12-04T12:08:58.419Z,2.30
2022-12-04T12:09:58.715Z,2.30
2022-12-04T12:10:58.756Z,2.27
2022-12-04T12:11:58.387Z,2.23
2022-12-04T12:12:58.417Z,2.23
2022-12-04T12:13:58.382Z,2.23
2022-12-04T12:14:58.812Z,2.23
2022-12-04T12:15:58.375Z,2.28
2022-12-04T12:16:58.441Z,2.28
2022-12-04T12:17:58.675Z,2.27
2022-12-04T12:18:58.324Z,2.26
2022-12-04T12:19:58.552Z,2.27
2022-12-04T12:20:58.398Z,2.26
2022-12-04T12:22:03.454Z,2.23
2022-12-04T12:22:58.352Z,2.23
2022-12-04T12:23:58.283Z,2.26
2022-12-04T12:24:58.944Z,2.26
2022-12-04T12:25:58.326Z,2.26
2022-12-04T12:26:58.294Z,2.26
2022-12-04T12:27:58.226Z,2.26
2022-12-04T12:28:58.291Z,2.23
2022-12-04T12:29:58.568Z,2.26
2022-12-04T12:31:04.090Z,2.27
2022-12-04T12:31:58.310Z,2.28
2022-12-04T12:32:58.181Z,2.27
2022-12-04T12:33:58.176Z,2.28
2022-12-04T12:34:58.246Z,2.30
2022-12-04T12:35:58.166Z,2.30
2022-12-04T12:37:00.996Z,2.27
2022-12-04T12:37:58.476Z,2.27
2022-12-04T12:38:58.106Z,2.28
2022-12-04T12:39:58.699Z,2.28
2022-12-04T12:40:58.168Z,2.28
2022-12-04T12:41:58.216Z,2.27
2022-12-04T12:42:58.867Z,2.27
2022-12-04T12:43:58.087Z,2.31
2022-12-04T12:44:58.419Z,2.28
2022-12-04T12:45:58.195Z,2.26
2022-12-04T12:46:58.112Z,2.28
2022-12-04T12:47:58.027Z,2.27
2022-12-04T12:48:58.688Z,2.26
2022-12-04T12:49:58.303Z,2.20
2022-12-04T12:51:22.090Z,2.19
2022-12-04T12:51:58.011Z,2.19
2022-12-04T12:52:58.059Z,2.20
2022-12-04T12:53:58.047Z,2.20
2022-12-04T12:54:57.987Z,2.22
2022-12-04T12:55:57.982Z,2.20
2022-12-04T12:56:57.963Z,2.20
2022-12-04T12:57:58.357Z,2.22
2022-12-04T12:58:58.644Z,2.19
2022-12-04T12:59:58.454Z,2.17
2022-12-04T13:00:58.056Z,2.20
2022-12-04T13:02:01.015Z,2.20
2022-12-04T13:02:58.057Z,2.17
2022-12-04T13:03:58.073Z,2.17
2022-12-04T13:04:57.966Z,2.15
2022-12-04T13:05:57.874Z,2.16
2022-12-04T13:06:57.830Z,2.15
2022-12-04T13:07:57.943Z,2.15
2022-12-04T13:08:57.955Z,2.15
2022-12-04T13:09:58.455Z,2.15
2022-12-04T13:10:57.866Z,2.15
2022-12-04T13:11:57.797Z,2.15
2022-12-04T13:12:57.787Z,2.17
2022-12-04T13:13:57.765Z,2.15
2022-12-04T13:14:57.761Z,2.16
2022-12-04T13:15:57.770Z,2.13
2022-12-04T13:16:58.303Z,2.13
2022-12-04T13:17:57.710Z,2.15
2022-12-04T13:18:57.710Z,2.15